sensor_id;sensor_type;location;lat;lon;timestamp;P1;durP1;ratioP1;P2;durP2;ratioP2
75793;SDS011;64418;47.536;19.074;2023-09-08T04:24:54;10.40;;;6.32;;
75793;SDS011;64418;47.536;19.074;2023-09-08T04:27:45;10.87;;;5.63;;
75793;SDS011;64418;47.536;19.074;2023-09-08T04:30:30;8.57;;;5.40;;
75793;SDS011;64418;47.536;19.074;2023-09-08T04:33:17;8.70;;;5.07;;
75793;SDS011;64418;47.536;19.074;2023-09-08T04:36:02;10.20;;;5.03;;
75793;SDS011;64418;47.536;19.074;2023-09-08T04:38:46;11.48;;;5.20;;
75793;SDS011;64418;47.536;19.074;2023-09-08T04:41:35;10.83;;;4.80;;
75793;SDS011;64418;47.536;19.074;2023-09-08T04:44:19;10.70;;;4.85;;
75793;SDS011;64418;47.536;19.074;2023-09-08T04:47:04;11.48;;;5.32;;
75793;SDS011;64418;47.536;19.074;2023-09-08T04:49:48;10.85;;;6.05;;
75793;SDS011;64418;47.536;19.074;2023-09-08T04:52:32;10.48;;;4.93;;
75793;SDS011;64418;47.536;19.074;2023-09-08T04:55:20;11.07;;;5.70;;
75793;SDS011;64418;47.536;19.074;2023-09-08T04:58:10;8.93;;;5.40;;
75793;SDS011;64418;47.536;19.074;2023-09-08T05:00:55;10.70;;;5.70;;
75793;SDS011;64418;47.536;19.074;2023-09-08T05:03:39;11.55;;;5.32;;
75793;SDS011;64418;47.536;19.074;2023-09-08T05:06:23;12.13;;;4.75;;
75793;SDS011;64418;47.536;19.074;2023-09-08T05:09:08;15.27;;;5.47;;
75793;SDS011;64418;47.536;19.074;2023-09-08T05:11:53;9.48;;;5.20;;
75793;SDS011;64418;47.536;19.074;2023-09-08T05:14:39;8.73;;;5.20;;
75793;SDS011;64418;47.536;19.074;2023-09-08T05:17:24;8.93;;;4.95;;
75793;SDS011;64418;47.536;19.074;2023-09-08T05:20:09;12.20;;;6.07;;
75793;SDS011;64418;47.536;19.074;2023-09-08T05:22:54;8.30;;;5.23;;
75793;SDS011;64418;47.536;19.074;2023-09-08T05:25:41;8.13;;;5.22;;
75793;SDS011;64418;47.536;19.074;2023-09-08T05:28:25;12.95;;;5.55;;
75793;SDS011;64418;47.536;19.074;2023-09-08T05:31:11;10.60;;;5.40;;
75793;SDS011;64418;47.536;19.074;2023-09-08T05:33:59;12.10;;;5.32;;
75793;SDS011;64418;47.536;19.074;2023-09-08T05:36:45;9.20;;;5.40;;
75793;SDS011;64418;47.536;19.074;2023-09-08T05:39:30;12.63;;;5.12;;
75793;SDS011;64418;47.536;19.074;2023-09-08T05:42:15;13.00;;;5.20;;
75793;SDS011;64418;47.536;19.074;2023-09-08T05:45:02;14.25;;;5.80;;
75793;SDS011;64418;47.536;19.074;2023-09-08T05:47:48;9.55;;;5.65;;
75793;SDS011;64418;47.536;19.074;2023-09-08T05:50:33;8.13;;;5.00;;
75793;SDS011;64418;47.536;19.074;2023-09-08T05:53:17;21.33;;;6.62;;
75793;SDS011;64418;47.536;19.074;2023-09-08T05:56:02;61.70;;;8.85;;
75793;SDS011;64418;47.536;19.074;2023-09-08T05:58:48;15.88;;;5.87;;
75793;SDS011;64418;47.536;19.074;2023-09-08T06:01:32;12.32;;;5.53;;
75793;SDS011;64418;47.536;19.074;2023-09-08T06:04:19;10.40;;;4.83;;
75793;SDS011;64418;47.536;19.074;2023-09-08T06:07:03;9.13;;;5.32;;
75793;SDS011;64418;47.536;19.074;2023-09-08T06:09:48;15.88;;;5.90;;
75793;SDS011;64418;47.536;19.074;2023-09-08T06:12:32;21.60;;;5.80;;
75793;SDS011;64418;47.536;19.074;2023-09-08T06:15:17;21.83;;;5.62;;
75793;SDS011;64418;47.536;19.074;2023-09-08T06:18:01;26.37;;;6.23;;
75793;SDS011;64418;47.536;19.074;2023-09-08T06:20:47;12.80;;;4.97;;
75793;SDS011;64418;47.536;19.074;2023-09-08T06:23:35;14.93;;;5.60;;
75793;SDS011;64418;47.536;19.074;2023-09-08T06:26:01;11.63;;;5.15;;
75793;SDS011;64418;47.536;19.074;2023-09-08T06:28:27;13.55;;;5.28;;
75793;SDS011;64418;47.536;19.074;2023-09-08T06:31:13;22.93;;;6.07;;
75793;SDS011;64418;47.536;19.074;2023-09-08T06:33:39;11.73;;;5.30;;
75793;SDS011;64418;47.536;19.074;2023-09-08T06:36:27;17.20;;;5.72;;
75793;SDS011;64418;47.536;19.074;2023-09-08T06:39:12;13.00;;;5.33;;
75793;SDS011;64418;47.536;19.074;2023-09-08T06:41:46;13.70;;;5.40;;
75793;SDS011;64418;47.536;19.074;2023-09-08T06:44:33;23.70;;;6.47;;
75793;SDS011;64418;47.536;19.074;2023-09-08T06:46:59;21.80;;;5.62;;
75793;SDS011;64418;47.536;19.074;2023-09-08T06:49:27;9.47;;;5.00;;
75793;SDS011;64418;47.536;19.074;2023-09-08T06:52:15;13.52;;;5.35;;
75793;SDS011;64418;47.536;19.074;2023-09-08T06:54:41;9.30;;;4.97;;
75793;SDS011;64418;47.536;19.074;2023-09-08T06:57:07;15.75;;;5.20;;
75793;SDS011;64418;47.536;19.074;2023-09-08T06:59:53;12.25;;;5.62;;
75793;SDS011;64418;47.536;19.074;2023-09-08T07:02:19;11.37;;;5.50;;
75793;SDS011;64418;47.536;19.074;2023-09-08T07:05:05;9.32;;;5.28;;
75793;SDS011;64418;47.536;19.074;2023-09-08T07:07:33;8.52;;;5.30;;
75793;SDS011;64418;47.536;19.074;2023-09-08T07:09:59;8.27;;;5.00;;
75793;SDS011;64418;47.536;19.074;2023-09-08T07:12:25;12.77;;;5.37;;
75793;SDS011;64418;47.536;19.074;2023-09-08T07:14:51;12.33;;;4.90;;
75793;SDS011;64418;47.536;19.074;2023-09-08T07:17:17;11.63;;;4.50;;
75793;SDS011;64418;47.536;19.074;2023-09-08T07:20:03;6.97;;;4.83;;
75793;SDS011;64418;47.536;19.074;2023-09-08T07:22:30;9.90;;;4.60;;
75793;SDS011;64418;47.536;19.074;2023-09-08T07:25:17;12.52;;;5.30;;
75793;SDS011;64418;47.536;19.074;2023-09-08T07:28:03;9.77;;;4.72;;
75793;SDS011;64418;47.536;19.074;2023-09-08T07:30:31;7.90;;;4.70;;
75793;SDS011;64418;47.536;19.074;2023-09-08T07:32:57;10.60;;;4.93;;
75793;SDS011;64418;47.536;19.074;2023-09-08T07:35:43;10.63;;;5.07;;
75793;SDS011;64418;47.536;19.074;2023-09-08T07:38:09;13.13;;;5.07;;
75793;SDS011;64418;47.536;19.074;2023-09-08T07:40:40;10.07;;;4.60;;
75793;SDS011;64418;47.536;19.074;2023-09-08T07:43:10;13.33;;;4.70;;
75793;SDS011;64418;47.536;19.074;2023-09-08T07:45:39;14.68;;;5.47;;
75793;SDS011;64418;47.536;19.074;2023-09-08T07:48:25;9.95;;;4.85;;
75793;SDS011;64418;47.536;19.074;2023-09-08T07:50:51;7.18;;;4.87;;
75793;SDS011;64418;47.536;19.074;2023-09-08T07:53:18;9.10;;;4.93;;
75793;SDS011;64418;47.536;19.074;2023-09-08T07:55:45;8.40;;;4.77;;
75793;SDS011;64418;47.536;19.074;2023-09-08T07:58:11;7.15;;;4.28;;
75793;SDS011;64418;47.536;19.074;2023-09-08T08:00:37;11.20;;;4.60;;
75793;SDS011;64418;47.536;19.074;2023-09-08T08:03:24;7.75;;;5.00;;
75793;SDS011;64418;47.536;19.074;2023-09-08T08:05:50;13.37;;;4.67;;
75793;SDS011;64418;47.536;19.074;2023-09-08T08:08:17;10.77;;;5.15;;
75793;SDS011;64418;47.536;19.074;2023-09-08T08:11:04;13.13;;;4.80;;
75793;SDS011;64418;47.536;19.074;2023-09-08T08:13:34;11.07;;;5.22;;
75793;SDS011;64418;47.536;19.074;2023-09-08T08:16:03;11.57;;;5.27;;
75793;SDS011;64418;47.536;19.074;2023-09-08T08:18:33;11.43;;;5.03;;
75793;SDS011;64418;47.536;19.074;2023-09-08T08:20:59;16.02;;;5.40;;
75793;SDS011;64418;47.536;19.074;2023-09-08T08:23:25;10.75;;;5.30;;
75793;SDS011;64418;47.536;19.074;2023-09-08T08:25:51;14.98;;;5.07;;
75793;SDS011;64418;47.536;19.074;2023-09-08T08:28:21;8.60;;;4.70;;
75793;SDS011;64418;47.536;19.074;2023-09-08T08:30:50;7.68;;;4.78;;
75793;SDS011;64418;47.536;19.074;2023-09-08T08:33:23;12.02;;;4.90;;
75793;SDS011;64418;47.536;19.074;2023-09-08T08:35:49;13.25;;;5.12;;
75793;SDS011;64418;47.536;19.074;2023-09-08T08:38:35;12.05;;;4.80;;
75793;SDS011;64418;47.536;19.074;2023-09-08T08:41:02;10.33;;;5.10;;
75793;SDS011;64418;47.536;19.074;2023-09-08T08:43:32;11.40;;;4.78;;
75793;SDS011;64418;47.536;19.074;2023-09-08T08:46:01;11.88;;;4.75;;
75793;SDS011;64418;47.536;19.074;2023-09-08T08:48:31;11.12;;;5.20;;
75793;SDS011;64418;47.536;19.074;2023-09-08T08:50:58;11.43;;;4.97;;
75793;SDS011;64418;47.536;19.074;2023-09-08T08:53:45;9.87;;;4.60;;
75793;SDS011;64418;47.536;19.074;2023-09-08T08:56:12;8.75;;;4.62;;
75793;SDS011;64418;47.536;19.074;2023-09-08T08:58:40;12.48;;;4.90;;
75793;SDS011;64418;47.536;19.074;2023-09-08T09:01:07;6.90;;;4.50;;
75793;SDS011;64418;47.536;19.074;2023-09-08T09:03:56;11.90;;;5.03;;
75793;SDS011;64418;47.536;19.074;2023-09-08T09:06:26;9.97;;;4.67;;
75793;SDS011;64418;47.536;19.074;2023-09-08T09:08:52;8.43;;;4.60;;
75793;SDS011;64418;47.536;19.074;2023-09-08T09:11:18;8.95;;;4.45;;
75793;SDS011;64418;47.536;19.074;2023-09-08T09:14:06;11.80;;;4.47;;
75793;SDS011;64418;47.536;19.074;2023-09-08T09:16:52;11.38;;;4.82;;
75793;SDS011;64418;47.536;19.074;2023-09-08T09:19:42;8.33;;;4.67;;
75793;SDS011;64418;47.536;19.074;2023-09-08T09:22:08;9.85;;;4.60;;
75793;SDS011;64418;47.536;19.074;2023-09-08T09:24:35;12.30;;;5.57;;
75793;SDS011;64418;47.536;19.074;2023-09-08T09:27:22;9.88;;;5.03;;
75793;SDS011;64418;47.536;19.074;2023-09-08T09:29:50;11.70;;;5.35;;
75793;SDS011;64418;47.536;19.074;2023-09-08T09:32:16;6.90;;;4.60;;
75793;SDS011;64418;47.536;19.074;2023-09-08T09:34:48;9.15;;;4.80;;
75793;SDS011;64418;47.536;19.074;2023-09-08T09:37:17;12.90;;;4.97;;
75793;SDS011;64418;47.536;19.074;2023-09-08T09:40:04;14.95;;;4.85;;
75793;SDS011;64418;47.536;19.074;2023-09-08T09:42:34;11.45;;;5.50;;
75793;SDS011;64418;47.536;19.074;2023-09-08T09:45:26;13.03;;;4.43;;
75793;SDS011;64418;47.536;19.074;2023-09-08T09:48:13;10.00;;;4.93;;
75793;SDS011;64418;47.536;19.074;2023-09-08T09:50:44;9.20;;;5.00;;
75793;SDS011;64418;47.536;19.074;2023-09-08T09:53:34;10.40;;;4.30;;
75793;SDS011;64418;47.536;19.074;2023-09-08T09:56:00;13.48;;;5.10;;
75793;SDS011;64418;47.536;19.074;2023-09-08T09:58:28;12.67;;;4.67;;
75793;SDS011;64418;47.536;19.074;2023-09-08T10:00:55;6.47;;;4.70;;
75793;SDS011;64418;47.536;19.074;2023-09-08T10:03:23;8.45;;;4.72;;
75793;SDS011;64418;47.536;19.074;2023-09-08T10:05:51;7.97;;;4.55;;
75793;SDS011;64418;47.536;19.074;2023-09-08T10:08:18;10.13;;;5.20;;
75793;SDS011;64418;47.536;19.074;2023-09-08T10:11:05;12.00;;;4.73;;
75793;SDS011;64418;47.536;19.074;2023-09-08T10:13:53;8.20;;;4.90;;
75793;SDS011;64418;47.536;19.074;2023-09-08T10:16:26;6.75;;;4.65;;
75793;SDS011;64418;47.536;19.074;2023-09-08T10:19:12;8.65;;;4.85;;
75793;SDS011;64418;47.536;19.074;2023-09-08T10:21:42;9.25;;;4.62;;
75793;SDS011;64418;47.536;19.074;2023-09-08T10:24:13;9.37;;;4.40;;
75793;SDS011;64418;47.536;19.074;2023-09-08T10:26:43;9.43;;;4.95;;
75793;SDS011;64418;47.536;19.074;2023-09-08T10:29:12;7.65;;;4.60;;
75793;SDS011;64418;47.536;19.074;2023-09-08T10:31:40;5.45;;;4.35;;
75793;SDS011;64418;47.536;19.074;2023-09-08T10:34:07;8.73;;;5.05;;
75793;SDS011;64418;47.536;19.074;2023-09-08T10:36:54;9.57;;;4.67;;
75793;SDS011;64418;47.536;19.074;2023-09-08T10:39:30;9.38;;;4.43;;
75793;SDS011;64418;47.536;19.074;2023-09-08T10:47:54;14.55;;;4.00;;
75793;SDS011;64418;47.536;19.074;2023-09-08T10:50:26;8.33;;;4.07;;
75793;SDS011;64418;47.536;19.074;2023-09-08T10:53:15;17.27;;;4.20;;
75793;SDS011;64418;47.536;19.074;2023-09-08T10:55:43;12.45;;;4.47;;
75793;SDS011;64418;47.536;19.074;2023-09-08T10:58:32;20.20;;;4.57;;
75793;SDS011;64418;47.536;19.074;2023-09-08T11:01:00;70.18;;;6.75;;
75793;SDS011;64418;47.536;19.074;2023-09-08T11:03:42;26.57;;;5.33;;
75793;SDS011;64418;47.536;19.074;2023-09-08T11:06:10;55.17;;;6.07;;
75793;SDS011;64418;47.536;19.074;2023-09-08T11:08:42;23.75;;;5.10;;
75793;SDS011;64418;47.536;19.074;2023-09-08T11:11:10;34.20;;;5.43;;
75793;SDS011;64418;47.536;19.074;2023-09-08T11:13:37;40.50;;;5.15;;
75793;SDS011;64418;47.536;19.074;2023-09-08T11:16:24;7.40;;;4.10;;
75793;SDS011;64418;47.536;19.074;2023-09-08T11:18:52;16.90;;;3.78;;
75793;SDS011;64418;47.536;19.074;2023-09-08T11:21:19;56.75;;;6.75;;
75793;SDS011;64418;47.536;19.074;2023-09-08T11:23:47;12.27;;;3.90;;
75793;SDS011;64418;47.536;19.074;2023-09-08T11:26:34;6.47;;;3.80;;
75793;SDS011;64418;47.536;19.074;2023-09-08T11:29:22;16.40;;;4.20;;
75793;SDS011;64418;47.536;19.074;2023-09-08T11:31:52;28.60;;;4.65;;
75793;SDS011;64418;47.536;19.074;2023-09-08T11:34:23;92.18;;;7.80;;
75793;SDS011;64418;47.536;19.074;2023-09-08T11:36:50;22.95;;;4.50;;
75793;SDS011;64418;47.536;19.074;2023-09-08T11:39:37;12.13;;;3.50;;
75793;SDS011;64418;47.536;19.074;2023-09-08T11:42:24;6.93;;;3.60;;
75793;SDS011;64418;47.536;19.074;2023-09-08T11:44:52;47.75;;;5.57;;
75793;SDS011;64418;47.536;19.074;2023-09-08T11:47:19;13.73;;;3.95;;
75793;SDS011;64418;47.536;19.074;2023-09-08T11:49:52;14.65;;;3.60;;
75793;SDS011;64418;47.536;19.074;2023-09-08T11:52:22;13.68;;;4.00;;
75793;SDS011;64418;47.536;19.074;2023-09-08T11:54:51;8.33;;;3.73;;
75793;SDS011;64418;47.536;19.074;2023-09-08T11:57:18;5.60;;;3.80;;
75793;SDS011;64418;47.536;19.074;2023-09-08T12:00:05;5.28;;;3.65;;
75793;SDS011;64418;47.536;19.074;2023-09-08T12:02:58;6.15;;;3.42;;
75793;SDS011;64418;47.536;19.074;2023-09-08T12:05:43;7.68;;;3.80;;
75793;SDS011;64418;47.536;19.074;2023-09-08T12:08:10;6.73;;;3.30;;
75793;SDS011;64418;47.536;19.074;2023-09-08T12:10:41;7.50;;;3.33;;
75793;SDS011;64418;47.536;19.074;2023-09-08T12:13:08;7.40;;;4.00;;
75793;SDS011;64418;47.536;19.074;2023-09-08T12:15:35;5.50;;;4.00;;
75793;SDS011;64418;47.536;19.074;2023-09-08T12:18:03;6.03;;;3.75;;
75793;SDS011;64418;47.536;19.074;2023-09-08T12:20:31;8.10;;;4.00;;
75793;SDS011;64418;47.536;19.074;2023-09-08T12:23:06;8.10;;;3.67;;
75793;SDS011;64418;47.536;19.074;2023-09-08T12:25:44;7.22;;;3.97;;
75793;SDS011;64418;47.536;19.074;2023-09-08T12:28:10;20.98;;;4.10;;
75793;SDS011;64418;47.536;19.074;2023-09-08T12:30:36;27.80;;;4.57;;
75793;SDS011;64418;47.536;19.074;2023-09-08T12:33:02;8.02;;;4.00;;
75793;SDS011;64418;47.536;19.074;2023-09-08T12:35:29;7.28;;;3.65;;
75793;SDS011;64418;47.536;19.074;2023-09-08T12:37:59;7.43;;;4.05;;
75793;SDS011;64418;47.536;19.074;2023-09-08T12:40:47;5.87;;;4.00;;
75793;SDS011;64418;47.536;19.074;2023-09-08T12:43:34;5.82;;;3.55;;
75793;SDS011;64418;47.536;19.074;2023-09-08T12:46:01;12.52;;;3.65;;
75793;SDS011;64418;47.536;19.074;2023-09-08T12:48:27;8.55;;;3.72;;
75793;SDS011;64418;47.536;19.074;2023-09-08T12:51:13;5.95;;;3.50;;
75793;SDS011;64418;47.536;19.074;2023-09-08T12:53:40;5.20;;;3.33;;
75793;SDS011;64418;47.536;19.074;2023-09-08T12:56:28;7.70;;;3.50;;
75793;SDS011;64418;47.536;19.074;2023-09-08T12:59:14;10.38;;;4.10;;
75793;SDS011;64418;47.536;19.074;2023-09-08T13:01:43;6.87;;;3.58;;
75793;SDS011;64418;47.536;19.074;2023-09-08T13:04:12;30.48;;;5.00;;
75793;SDS011;64418;47.536;19.074;2023-09-08T13:06:39;7.00;;;3.67;;
75793;SDS011;64418;47.536;19.074;2023-09-08T13:09:05;4.97;;;3.10;;
75793;SDS011;64418;47.536;19.074;2023-09-08T13:11:33;7.57;;;3.45;;
75793;SDS011;64418;47.536;19.074;2023-09-08T13:13:59;6.55;;;3.17;;
75793;SDS011;64418;47.536;19.074;2023-09-08T13:16:25;3.72;;;2.85;;
75793;SDS011;64418;47.536;19.074;2023-09-08T13:18:51;5.30;;;3.20;;
75793;SDS011;64418;47.536;19.074;2023-09-08T13:21:17;6.28;;;3.67;;
75793;SDS011;64418;47.536;19.074;2023-09-08T13:23:43;5.85;;;3.17;;
75793;SDS011;64418;47.536;19.074;2023-09-08T13:26:09;5.93;;;3.60;;
75793;SDS011;64418;47.536;19.074;2023-09-08T13:28:58;9.18;;;3.45;;
75793;SDS011;64418;47.536;19.074;2023-09-08T13:31:28;8.05;;;3.45;;
75793;SDS011;64418;47.536;19.074;2023-09-08T13:33:54;5.65;;;3.40;;
75793;SDS011;64418;47.536;19.074;2023-09-08T13:36:24;11.35;;;3.50;;
75793;SDS011;64418;47.536;19.074;2023-09-08T13:38:50;7.03;;;3.13;;
75793;SDS011;64418;47.536;19.074;2023-09-08T13:41:18;8.65;;;3.15;;
75793;SDS011;64418;47.536;19.074;2023-09-08T13:43:44;5.45;;;3.03;;
75793;SDS011;64418;47.536;19.074;2023-09-08T13:46:12;8.02;;;3.83;;
75793;SDS011;64418;47.536;19.074;2023-09-08T13:48:39;4.65;;;3.80;;
75793;SDS011;64418;47.536;19.074;2023-09-08T13:51:09;5.30;;;3.20;;
75793;SDS011;64418;47.536;19.074;2023-09-08T13:53:35;13.32;;;4.68;;
75793;SDS011;64418;47.536;19.074;2023-09-08T13:56:22;5.50;;;3.22;;
75793;SDS011;64418;47.536;19.074;2023-09-08T13:58:49;5.55;;;3.20;;
75793;SDS011;64418;47.536;19.074;2023-09-08T14:01:17;6.28;;;3.50;;
75793;SDS011;64418;47.536;19.074;2023-09-08T14:03:46;8.53;;;3.50;;
75793;SDS011;64418;47.536;19.074;2023-09-08T14:06:12;9.57;;;3.22;;
75793;SDS011;64418;47.536;19.074;2023-09-08T14:08:39;4.65;;;3.20;;
75793;SDS011;64418;47.536;19.074;2023-09-08T14:11:25;6.28;;;3.08;;
75793;SDS011;64418;47.536;19.074;2023-09-08T14:14:16;8.05;;;3.28;;
75793;SDS011;64418;47.536;19.074;2023-09-08T14:17:06;6.73;;;3.23;;
75793;SDS011;64418;47.536;19.074;2023-09-08T14:19:56;7.07;;;3.25;;
75793;SDS011;64418;47.536;19.074;2023-09-08T14:22:22;6.35;;;3.50;;
75793;SDS011;64418;47.536;19.074;2023-09-08T14:24:49;5.47;;;3.58;;
75793;SDS011;64418;47.536;19.074;2023-09-08T14:27:36;5.22;;;3.08;;
75793;SDS011;64418;47.536;19.074;2023-09-08T14:30:03;5.00;;;3.10;;
75793;SDS011;64418;47.536;19.074;2023-09-08T14:32:31;6.10;;;3.37;;
75793;SDS011;64418;47.536;19.074;2023-09-08T14:35:01;10.57;;;3.40;;
75793;SDS011;64418;47.536;19.074;2023-09-08T14:37:27;5.47;;;3.37;;
75793;SDS011;64418;47.536;19.074;2023-09-08T14:40:13;5.00;;;3.67;;
75793;SDS011;64418;47.536;19.074;2023-09-08T14:42:40;8.73;;;3.80;;
75793;SDS011;64418;47.536;19.074;2023-09-08T14:45:07;8.93;;;3.47;;
75793;SDS011;64418;47.536;19.074;2023-09-08T14:47:35;6.30;;;3.50;;
75793;SDS011;64418;47.536;19.074;2023-09-08T14:50:02;6.50;;;3.12;;
75793;SDS011;64418;47.536;19.074;2023-09-08T14:52:28;7.50;;;3.40;;
75793;SDS011;64418;47.536;19.074;2023-09-08T14:54:54;5.03;;;3.30;;
75793;SDS011;64418;47.536;19.074;2023-09-08T14:57:24;4.35;;;3.47;;
75793;SDS011;64418;47.536;19.074;2023-09-08T14:59:54;5.78;;;3.35;;
75793;SDS011;64418;47.536;19.074;2023-09-08T15:02:20;4.90;;;3.70;;
75793;SDS011;64418;47.536;19.074;2023-09-08T15:05:08;5.07;;;3.53;;
75793;SDS011;64418;47.536;19.074;2023-09-08T15:07:58;8.90;;;3.10;;
75793;SDS011;64418;47.536;19.074;2023-09-08T15:10:44;9.60;;;3.50;;
75793;SDS011;64418;47.536;19.074;2023-09-08T15:13:10;5.60;;;3.50;;
75793;SDS011;64418;47.536;19.074;2023-09-08T15:15:41;6.05;;;3.28;;
75793;SDS011;64418;47.536;19.074;2023-09-08T15:18:09;8.23;;;3.53;;
75793;SDS011;64418;47.536;19.074;2023-09-08T15:20:57;6.30;;;3.33;;
75793;SDS011;64418;47.536;19.074;2023-09-08T15:23:43;11.57;;;3.33;;
75793;SDS011;64418;47.536;19.074;2023-09-08T15:26:11;6.97;;;3.58;;
75793;SDS011;64418;47.536;19.074;2023-09-08T15:28:40;4.80;;;3.47;;
75793;SDS011;64418;47.536;19.074;2023-09-08T15:31:07;7.47;;;3.28;;
75793;SDS011;64418;47.536;19.074;2023-09-08T15:33:37;6.33;;;3.50;;
75793;SDS011;64418;47.536;19.074;2023-09-08T15:36:15;6.50;;;3.75;;
75793;SDS011;64418;47.536;19.074;2023-09-08T15:39:07;11.88;;;3.83;;
75793;SDS011;64418;47.536;19.074;2023-09-08T15:41:53;8.00;;;3.37;;
75793;SDS011;64418;47.536;19.074;2023-09-08T15:44:20;5.65;;;3.78;;
75793;SDS011;64418;47.536;19.074;2023-09-08T15:46:46;5.90;;;3.57;;
75793;SDS011;64418;47.536;19.074;2023-09-08T15:49:12;5.32;;;3.30;;
75793;SDS011;64418;47.536;19.074;2023-09-08T15:51:41;5.25;;;3.50;;
75793;SDS011;64418;47.536;19.074;2023-09-08T15:54:08;7.60;;;3.20;;
75793;SDS011;64418;47.536;19.074;2023-09-08T15:56:58;5.50;;;3.60;;
75793;SDS011;64418;47.536;19.074;2023-09-08T15:59:30;6.43;;;3.45;;
75793;SDS011;64418;47.536;19.074;2023-09-08T16:01:57;7.05;;;3.37;;
75793;SDS011;64418;47.536;19.074;2023-09-08T16:04:24;6.07;;;3.75;;
75793;SDS011;64418;47.536;19.074;2023-09-08T16:06:55;8.17;;;3.37;;
75793;SDS011;64418;47.536;19.074;2023-09-08T16:09:26;8.35;;;3.35;;
75793;SDS011;64418;47.536;19.074;2023-09-08T16:12:14;5.72;;;3.25;;
75793;SDS011;64418;47.536;19.074;2023-09-08T16:14:42;7.87;;;3.40;;
75793;SDS011;64418;47.536;19.074;2023-09-08T16:17:09;6.07;;;3.30;;
75793;SDS011;64418;47.536;19.074;2023-09-08T16:19:35;7.20;;;3.60;;
75793;SDS011;64418;47.536;19.074;2023-09-08T16:22:03;7.97;;;3.55;;
75793;SDS011;64418;47.536;19.074;2023-09-08T16:24:30;7.53;;;3.97;;
75793;SDS011;64418;47.536;19.074;2023-09-08T16:26:58;4.80;;;3.40;;
75793;SDS011;64418;47.536;19.074;2023-09-08T16:29:25;7.25;;;3.53;;
75793;SDS011;64418;47.536;19.074;2023-09-08T16:31:53;8.07;;;3.60;;
75793;SDS011;64418;47.536;19.074;2023-09-08T16:34:22;10.02;;;3.45;;
75793;SDS011;64418;47.536;19.074;2023-09-08T16:36:49;8.27;;;3.55;;
75793;SDS011;64418;47.536;19.074;2023-09-08T16:39:22;7.78;;;3.67;;
75793;SDS011;64418;47.536;19.074;2023-09-08T16:41:48;6.87;;;3.80;;
75793;SDS011;64418;47.536;19.074;2023-09-08T16:44:36;12.03;;;4.10;;
75793;SDS011;64418;47.536;19.074;2023-09-08T16:47:04;9.00;;;5.50;;
75793;SDS011;64418;47.536;19.074;2023-09-08T16:49:55;10.18;;;4.22;;
75793;SDS011;64418;47.536;19.074;2023-09-08T16:52:30;14.50;;;3.80;;
75793;SDS011;64418;47.536;19.074;2023-09-08T16:55:01;9.45;;;3.42;;
75793;SDS011;64418;47.536;19.074;2023-09-08T16:57:28;7.13;;;3.40;;
75793;SDS011;64418;47.536;19.074;2023-09-08T16:59:55;11.70;;;3.55;;
75793;SDS011;64418;47.536;19.074;2023-09-08T17:02:44;8.10;;;3.85;;
75793;SDS011;64418;47.536;19.074;2023-09-08T17:05:11;12.23;;;4.05;;
75793;SDS011;64418;47.536;19.074;2023-09-08T17:07:39;12.77;;;4.43;;
75793;SDS011;64418;47.536;19.074;2023-09-08T17:10:12;15.40;;;4.27;;
75793;SDS011;64418;47.536;19.074;2023-09-08T17:12:43;12.48;;;3.87;;
75793;SDS011;64418;47.536;19.074;2023-09-08T17:15:10;7.85;;;3.80;;
75793;SDS011;64418;47.536;19.074;2023-09-08T17:17:37;7.82;;;3.45;;
75793;SDS011;64418;47.536;19.074;2023-09-08T17:20:04;8.17;;;3.97;;
75793;SDS011;64418;47.536;19.074;2023-09-08T17:22:31;8.57;;;3.92;;
75793;SDS011;64418;47.536;19.074;2023-09-08T17:24:57;10.23;;;3.83;;
75793;SDS011;64418;47.536;19.074;2023-09-08T17:27:29;10.70;;;4.07;;
75793;SDS011;64418;47.536;19.074;2023-09-08T17:30:15;7.77;;;4.33;;
75793;SDS011;64418;47.536;19.074;2023-09-08T17:32:41;11.57;;;4.12;;
75793;SDS011;64418;47.536;19.074;2023-09-08T17:35:08;6.45;;;4.30;;
75793;SDS011;64418;47.536;19.074;2023-09-08T17:37:34;8.32;;;4.05;;
75793;SDS011;64418;47.536;19.074;2023-09-08T17:40:00;8.53;;;3.67;;
75793;SDS011;64418;47.536;19.074;2023-09-08T17:42:27;7.97;;;4.32;;
75793;SDS011;64418;47.536;19.074;2023-09-08T17:45:15;7.78;;;4.65;;
75793;SDS011;64418;47.536;19.074;2023-09-08T17:47:41;11.20;;;4.40;;
75793;SDS011;64418;47.536;19.074;2023-09-08T17:50:10;9.40;;;4.78;;
75793;SDS011;64418;47.536;19.074;2023-09-08T17:52:35;12.03;;;4.80;;
75793;SDS011;64418;47.536;19.074;2023-09-08T17:55:02;10.98;;;4.20;;
75793;SDS011;64418;47.536;19.074;2023-09-08T17:57:31;10.38;;;4.12;;
75793;SDS011;64418;47.536;19.074;2023-09-08T18:00:03;9.38;;;4.47;;
75793;SDS011;64418;47.536;19.074;2023-09-08T18:02:30;12.33;;;5.00;;
75793;SDS011;64418;47.536;19.074;2023-09-08T18:05:02;9.27;;;5.18;;
75793;SDS011;64418;47.536;19.074;2023-09-08T18:07:29;10.98;;;5.65;;
75793;SDS011;64418;47.536;19.074;2023-09-08T18:09:55;11.38;;;7.20;;
75793;SDS011;64418;47.536;19.074;2023-09-08T18:12:43;18.87;;;9.25;;
75793;SDS011;64418;47.536;19.074;2023-09-08T18:15:09;18.40;;;10.13;;
75793;SDS011;64418;47.536;19.074;2023-09-08T18:17:35;23.27;;;10.52;;
75793;SDS011;64418;47.536;19.074;2023-09-08T18:20:04;16.20;;;10.85;;
75793;SDS011;64418;47.536;19.074;2023-09-08T18:22:31;17.12;;;11.07;;
75793;SDS011;64418;47.536;19.074;2023-09-08T18:24:57;15.50;;;7.20;;
75793;SDS011;64418;47.536;19.074;2023-09-08T18:27:24;16.83;;;7.20;;
75793;SDS011;64418;47.536;19.074;2023-09-08T18:29:52;13.80;;;6.78;;
75793;SDS011;64418;47.536;19.074;2023-09-08T18:32:19;9.68;;;5.32;;
75793;SDS011;64418;47.536;19.074;2023-09-08T18:35:06;9.70;;;4.60;;
75793;SDS011;64418;47.536;19.074;2023-09-08T18:37:53;11.52;;;4.90;;
75793;SDS011;64418;47.536;19.074;2023-09-08T18:40:21;13.77;;;4.60;;
75793;SDS011;64418;47.536;19.074;2023-09-08T18:42:47;13.70;;;4.65;;
75793;SDS011;64418;47.536;19.074;2023-09-08T18:45:41;10.02;;;5.20;;
75793;SDS011;64418;47.536;19.074;2023-09-08T18:48:43;10.93;;;5.00;;
75793;SDS011;64418;47.536;19.074;2023-09-08T18:51:09;10.82;;;5.20;;
75793;SDS011;64418;47.536;19.074;2023-09-08T18:53:55;9.63;;;4.40;;
75793;SDS011;64418;47.536;19.074;2023-09-08T18:56:21;13.50;;;5.37;;
75793;SDS011;64418;47.536;19.074;2023-09-08T18:58:51;12.27;;;4.97;;
75793;SDS011;64418;47.536;19.074;2023-09-08T19:01:19;14.02;;;5.70;;
75793;SDS011;64418;47.536;19.074;2023-09-08T19:03:49;13.07;;;5.28;;
75793;SDS011;64418;47.536;19.074;2023-09-08T19:06:35;14.43;;;5.13;;
75793;SDS011;64418;47.536;19.074;2023-09-08T19:09:01;11.02;;;4.53;;
75793;SDS011;64418;47.536;19.074;2023-09-08T19:11:28;8.90;;;4.80;;
75793;SDS011;64418;47.536;19.074;2023-09-08T19:13:54;7.37;;;4.75;;
75793;SDS011;64418;47.536;19.074;2023-09-08T19:16:23;12.70;;;4.62;;
75793;SDS011;64418;47.536;19.074;2023-09-08T19:18:53;16.07;;;4.63;;
75793;SDS011;64418;47.536;19.074;2023-09-08T19:21:19;11.35;;;5.03;;
75793;SDS011;64418;47.536;19.074;2023-09-08T19:23:47;10.98;;;5.15;;
75793;SDS011;64418;47.536;19.074;2023-09-08T19:26:14;10.40;;;5.28;;
75793;SDS011;64418;47.536;19.074;2023-09-08T19:28:40;11.43;;;4.63;;
75793;SDS011;64418;47.536;19.074;2023-09-08T19:31:10;7.60;;;4.28;;
75793;SDS011;64418;47.536;19.074;2023-09-08T19:33:43;8.30;;;4.93;;
75793;SDS011;64418;47.536;19.074;2023-09-08T19:36:16;10.07;;;4.45;;
75793;SDS011;64418;47.536;19.074;2023-09-08T19:38:42;10.63;;;4.90;;